createdAt,value
2017-10-26T00:00:26.016Z,99053.64
2017-10-26T00:02:53.533Z,99045.84
2017-10-26T00:05:21.052Z,99045.97
2017-10-26T00:07:48.562Z,99042.33
2017-10-26T00:10:16.059Z,99043.70
2017-10-26T00:12:43.576Z,99048.14
2017-10-26T00:15:11.086Z,99053.95
2017-10-26T00:17:38.603Z,99054.64
2017-10-26T00:20:06.116Z,99048.59
2017-10-26T00:22:33.627Z,99041.41
2017-10-26T00:25:01.137Z,99028.94
2017-10-26T00:27:28.647Z,99034.03
2017-10-26T00:29:56.155Z,99038.11
2017-10-26T00:32:24.028Z,99041.84
2017-10-26T00:34:51.533Z,99040.91
2017-10-26T00:37:19.177Z,99040.27
2017-10-26T00:39:46.691Z,99041.73
2017-10-26T00:42:14.206Z,99046.73
2017-10-26T00:44:41.727Z,99040.80
2017-10-26T00:47:09.232Z,99043.28
2017-10-26T00:49:36.878Z,99048.22
2017-10-26T00:52:16.723Z,99052.65
2017-10-26T00:54:44.235Z,99051.16
2017-10-26T00:57:11.741Z,99046.34
2017-10-26T00:59:39.267Z,99040.73
2017-10-26T01:02:06.788Z,99034.54
2017-10-26T01:04:34.287Z,99025.03
2017-10-26T01:07:01.810Z,99031.55
2017-10-26T01:09:29.324Z,99028.91
2017-10-26T01:11:56.835Z,99021.20
2017-10-26T01:14:24.341Z,99021.02
2017-10-26T01:16:51.888Z,99017.95
2017-10-26T01:19:19.400Z,99016.46
2017-10-26T01:21:46.915Z,99015.98
2017-10-26T01:24:14.522Z,99009.17
2017-10-26T01:26:42.022Z,99010.72
2017-10-26T01:29:09.638Z,99005.66
2017-10-26T01:31:37.143Z,99001.19
2017-10-26T01:34:04.702Z,99007.54
2017-10-26T01:36:32.227Z,99002.83
2017-10-26T01:38:59.722Z,99004.50
2017-10-26T01:41:27.230Z,99006.98
2017-10-26T01:43:54.747Z,99000.66
2017-10-26T01:46:22.252Z,99004.45
2017-10-26T02:00:22.334Z,98990.89
2017-10-26T02:02:49.897Z,98989.17
2017-10-26T02:05:17.400Z,98984.06
2017-10-26T02:07:44.932Z,98988.85
2017-10-26T02:10:12.447Z,98988.06
2017-10-26T02:12:39.954Z,98991.45
2017-10-26T02:15:07.469Z,98985.19
2017-10-26T02:17:34.978Z,98989.69
2017-10-26T02:20:02.493Z,98985.83
2017-10-26T02:22:30.008Z,98981.27
2017-10-26T02:24:57.540Z,98989.38
2017-10-26T02:27:25.071Z,98986.46
2017-10-26T02:32:54.513Z,98989.00
2017-10-26T02:35:22.051Z,98994.66
2017-10-26T02:37:49.566Z,98994.65
2017-10-26T02:40:18.060Z,98995.01
2017-10-26T02:42:45.731Z,98995.01
2017-10-26T02:45:13.239Z,98991.95
2017-10-26T02:47:40.742Z,98995.94
2017-10-26T03:01:43.423Z,99017.53
2017-10-26T03:04:10.926Z,99017.43
2017-10-26T03:06:39.410Z,99010.20
2017-10-26T03:09:06.925Z,99009.89
2017-10-26T03:11:34.419Z,99012.78
2017-10-26T03:14:01.937Z,99017.48
2017-10-26T03:16:29.448Z,99022.47
2017-10-26T03:19:04.587Z,99021.22
2017-10-26T03:21:32.102Z,99017.15
2017-10-26T03:23:59.638Z,99019.86
2017-10-26T03:26:27.161Z,99031.56
2017-10-26T03:28:54.669Z,99033.52
2017-10-26T03:31:22.179Z,99032.64
2017-10-26T03:33:49.699Z,99031.26
2017-10-26T03:36:17.216Z,99034.42
2017-10-26T03:38:44.741Z,99038.85
2017-10-26T03:41:12.256Z,99037.94
2017-10-26T03:43:39.779Z,99034.29
2017-10-26T03:46:07.284Z,99025.74
2017-10-26T03:48:34.805Z,99024.62
2017-10-26T03:51:02.317Z,99030.87
2017-10-26T03:53:29.828Z,99029.00
2017-10-26T03:55:57.416Z,99025.52
2017-10-26T03:58:24.919Z,99015.02
2017-10-26T04:00:52.436Z,99012.53
2017-10-26T04:03:20.040Z,99015.55
2017-10-26T04:05:47.557Z,99018.09
2017-10-26T04:08:15.080Z,99009.41
2017-10-26T04:10:42.597Z,99000.19
2017-10-26T04:13:23.620Z,99003.81
2017-10-26T04:15:51.143Z,99005.05
2017-10-26T04:18:18.662Z,99001.08
2017-10-26T04:20:46.184Z,98999.68
2017-10-26T04:23:13.707Z,99003.33
2017-10-26T04:25:41.229Z,99006.70
2017-10-26T04:28:08.761Z,98998.69
2017-10-26T04:30:36.270Z,98995.16
2017-10-26T04:33:03.800Z,99005.08
2017-10-26T04:35:31.331Z,99008.52
2017-10-26T04:37:58.852Z,99016.11
2017-10-26T04:40:26.382Z,99008.64
2017-10-26T04:42:53.942Z,99013.30
2017-10-26T04:45:21.607Z,99013.59
2017-10-26T04:47:49.122Z,99019.42
2017-10-26T04:50:16.647Z,99009.83
2017-10-26T04:52:47.887Z,98997.97
2017-10-26T04:55:15.446Z,98995.63
2017-10-26T04:57:42.986Z,99000.78
2017-10-26T05:00:10.489Z,99005.56
2017-10-26T05:02:49.503Z,98995.46
2017-10-26T05:05:29.375Z,98993.52
2017-10-26T05:07:56.899Z,98987.00
2017-10-26T05:10:37.147Z,98989.52
2017-10-26T05:13:04.686Z,98992.08
2017-10-26T05:15:44.538Z,98979.84
2017-10-26T05:18:12.095Z,98971.25
2017-10-26T05:20:39.693Z,98962.89
2017-10-26T05:23:07.213Z,98969.56
2017-10-26T05:25:34.726Z,98967.48
2017-10-26T05:28:02.261Z,98964.72
2017-10-26T05:30:29.819Z,98964.95
2017-10-26T05:32:57.415Z,98965.05
2017-10-26T05:35:25.302Z,98958.94
2017-10-26T05:37:52.816Z,98960.08
2017-10-26T05:40:20.333Z,98967.29
2017-10-26T05:42:47.864Z,98954.97
2017-10-26T05:45:15.382Z,98956.30
2017-10-26T05:47:42.927Z,98969.38
2017-10-26T05:50:10.452Z,98974.03
2017-10-26T05:52:38.005Z,98989.83
2017-10-26T05:55:05.531Z,98985.05
2017-10-26T05:57:33.062Z,98987.99
2017-10-26T06:00:00.635Z,98987.25
2017-10-26T06:02:28.224Z,98991.21
2017-10-26T06:04:55.731Z,98997.42
2017-10-26T06:07:23.263Z,98994.91
2017-10-26T06:09:50.793Z,98990.23
2017-10-26T06:12:18.320Z,98997.91
2017-10-26T06:14:45.854Z,99011.56
2017-10-26T06:17:13.372Z,99010.31
2017-10-26T06:19:40.903Z,99016.91
2017-10-26T06:22:08.449Z,99015.70
2017-10-26T06:24:35.975Z,99033.25
2017-10-26T06:27:03.487Z,99035.20
2017-10-26T06:29:31.015Z,99029.69
2017-10-26T06:31:58.526Z,99035.67
2017-10-26T06:34:26.040Z,99038.66
2017-10-26T06:36:53.553Z,99035.44
2017-10-26T06:39:21.070Z,99035.83
2017-10-26T06:41:48.588Z,99035.42
2017-10-26T06:44:16.111Z,99031.21
2017-10-26T06:46:56.046Z,99032.17
2017-10-26T06:49:23.589Z,99032.22
2017-10-26T06:51:51.106Z,99030.33
2017-10-26T06:54:18.635Z,99026.78
2017-10-26T06:56:46.144Z,99022.24
2017-10-26T06:59:13.661Z,99019.99
2017-10-26T07:01:41.207Z,99012.08
2017-10-26T07:04:08.718Z,99013.93
2017-10-26T07:06:36.247Z,99023.56
2017-10-26T07:09:11.157Z,99016.81
2017-10-26T07:11:38.695Z,99012.00
2017-10-26T07:14:06.207Z,99012.08
2017-10-26T07:16:33.761Z,99013.15
2017-10-26T07:19:01.338Z,99016.86
2017-10-26T07:21:28.863Z,99019.28
2017-10-26T07:23:56.408Z,99027.96
2017-10-26T07:26:23.918Z,99029.02
2017-10-26T07:28:51.430Z,99030.24
2017-10-26T07:31:18.981Z,99025.46
2017-10-26T07:33:46.526Z,99016.52
2017-10-26T07:36:14.067Z,99012.89
2017-10-26T07:38:41.642Z,99018.69
2017-10-26T07:41:09.287Z,99009.70
2017-10-26T07:43:36.805Z,99001.83
2017-10-26T07:46:04.309Z,99012.64
2017-10-26T07:48:31.828Z,98997.60
2017-10-26T07:50:59.339Z,98994.14
2017-10-26T07:53:34.971Z,99000.06
2017-10-26T07:56:02.556Z,98999.61
2017-10-26T07:58:30.073Z,98986.23
2017-10-26T08:00:57.623Z,98993.00
2017-10-26T08:03:25.140Z,98991.65
2017-10-26T08:05:52.662Z,98996.91
2017-10-26T08:08:20.205Z,99000.53
2017-10-26T08:10:47.752Z,99002.89
2017-10-26T08:13:15.268Z,98998.41
2017-10-26T08:15:42.800Z,98995.42
2017-10-26T08:18:10.343Z,98997.94
2017-10-26T08:20:37.852Z,98994.06
2017-10-26T08:23:05.363Z,99005.51
2017-10-26T08:25:32.899Z,98994.61
2017-10-26T08:28:00.445Z,99000.27
2017-10-26T08:30:27.951Z,99001.85
2017-10-26T08:32:55.515Z,98997.56
2017-10-26T08:35:23.075Z,98994.91
2017-10-26T08:37:50.595Z,98997.77
2017-10-26T08:40:18.203Z,98997.30
2017-10-26T08:42:45.725Z,98987.67
2017-10-26T08:45:13.251Z,98994.67
2017-10-26T08:47:40.783Z,99000.14
2017-10-26T08:50:08.323Z,98999.09
2017-10-26T08:52:35.860Z,99000.52
2017-10-26T08:55:03.416Z,99000.23
2017-10-26T08:57:43.385Z,98997.00
2017-10-26T09:11:43.730Z,98988.63
2017-10-26T09:14:11.243Z,98985.62
2017-10-26T09:16:38.759Z,98992.91
2017-10-26T09:19:06.264Z,98987.77
2017-10-26T09:21:33.782Z,98990.09
2017-10-26T09:24:01.287Z,98990.17
2017-10-26T09:26:28.823Z,98991.00
2017-10-26T09:28:56.360Z,98989.77
2017-10-26T09:31:23.892Z,98985.78
2017-10-26T09:33:51.392Z,98978.70
2017-10-26T09:36:18.956Z,98978.08
2017-10-26T09:38:46.479Z,98972.45
2017-10-26T09:41:14.014Z,98965.20
2017-10-26T09:43:41.552Z,98962.80
2017-10-26T09:46:09.067Z,98957.46
2017-10-26T09:48:36.581Z,98947.98
2017-10-26T09:51:04.107Z,98950.87
2017-10-26T09:53:31.648Z,98953.25
2017-10-26T09:55:59.177Z,98958.33
2017-10-26T09:58:26.703Z,98955.36
2017-10-26T10:00:54.260Z,98957.58
2017-10-26T10:06:24.037Z,98964.16
2017-10-26T10:08:51.568Z,98961.64
2017-10-26T10:11:19.105Z,98960.53
2017-10-26T10:13:46.644Z,98965.95
2017-10-26T10:16:14.154Z,98968.95
2017-10-26T10:18:41.676Z,98965.56
2017-10-26T10:21:09.234Z,98962.10
2017-10-26T10:23:36.744Z,98958.96
2017-10-26T10:26:04.342Z,98965.30
2017-10-26T10:28:31.863Z,98962.97
2017-10-26T10:30:59.375Z,98962.41
2017-10-26T10:33:26.888Z,98961.88
2017-10-26T10:35:54.411Z,98954.38
2017-10-26T10:38:21.914Z,98955.58
2017-10-26T10:40:49.451Z,98960.30
2017-10-26T10:43:16.948Z,98954.58
2017-10-26T10:45:44.459Z,98952.72
2017-10-26T10:48:11.979Z,98951.66
2017-10-26T10:50:39.505Z,98956.61
2017-10-26T10:53:07.022Z,98960.17
2017-10-26T10:55:34.535Z,98950.28
2017-10-26T10:58:02.268Z,98947.67
2017-10-26T11:00:33.670Z,98955.23
2017-10-26T11:03:01.172Z,98948.83
2017-10-26T11:05:28.704Z,98941.41
2017-10-26T11:07:58.845Z,98946.96
2017-10-26T11:10:26.389Z,98941.36
2017-10-26T11:12:54.119Z,98942.30
2017-10-26T11:15:21.648Z,98943.20
2017-10-26T11:17:49.170Z,98939.70
2017-10-26T11:20:16.681Z,98935.56
2017-10-26T11:22:44.211Z,98942.20
2017-10-26T11:25:11.716Z,98930.47
2017-10-26T11:27:39.241Z,98928.19
2017-10-26T11:30:06.751Z,98919.17
2017-10-26T11:32:34.280Z,98926.27
2017-10-26T11:35:01.779Z,98920.57
2017-10-26T11:37:29.305Z,98927.13
2017-10-26T11:39:56.858Z,98919.52
2017-10-26T11:42:24.386Z,98917.25
2017-10-26T11:44:51.975Z,98918.13
2017-10-26T11:47:19.512Z,98908.70
2017-10-26T11:49:47.092Z,98909.70
2017-10-26T11:52:14.652Z,98898.43
2017-10-26T11:54:42.211Z,98888.58
2017-10-26T11:57:09.717Z,98895.41
2017-10-26T11:59:37.252Z,98886.94
2017-10-26T12:02:04.773Z,98876.91
2017-10-26T12:04:32.299Z,98884.53
2017-10-26T12:06:59.804Z,98870.64
2017-10-26T12:09:27.330Z,98868.73
2017-10-26T12:11:54.845Z,98859.13
2017-10-26T12:14:22.362Z,98850.55
2017-10-26T12:16:49.886Z,98848.77
2017-10-26T12:19:17.492Z,98848.13
2017-10-26T12:21:45.045Z,98853.19
2017-10-26T12:24:12.571Z,98854.61
2017-10-26T12:26:40.079Z,98847.80
2017-10-26T12:29:07.594Z,98855.80
2017-10-26T12:31:35.117Z,98844.63
2017-10-26T12:34:02.647Z,98846.55
2017-10-26T12:36:30.154Z,98851.42
2017-10-26T12:38:57.678Z,98855.48
2017-10-26T12:41:25.209Z,98847.23
2017-10-26T12:43:52.735Z,98848.84
2017-10-26T12:46:20.256Z,98846.56
2017-10-26T12:48:47.795Z,98842.34
2017-10-26T12:51:15.331Z,98845.97
2017-10-26T12:53:42.842Z,98825.86
2017-10-26T12:56:11.745Z,98826.16
2017-10-26T12:58:39.276Z,98825.27
2017-10-26T13:01:06.825Z,98818.84
2017-10-26T13:03:34.340Z,98813.50
2017-10-26T13:06:01.865Z,98816.80
2017-10-26T13:08:29.392Z,98809.28
2017-10-26T13:10:56.945Z,98817.08
2017-10-26T13:13:24.497Z,98814.17
2017-10-26T13:15:52.064Z,98821.13
2017-10-26T13:18:19.570Z,98811.13
2017-10-26T13:20:47.125Z,98813.80
2017-10-26T13:23:14.654Z,98810.45
2017-10-26T13:25:42.167Z,98810.83
2017-10-26T13:28:09.960Z,98802.31
2017-10-26T13:30:37.480Z,98798.93
2017-10-26T13:33:04.990Z,98800.20
2017-10-26T13:35:33.510Z,98797.80
2017-10-26T13:38:01.044Z,98797.28
2017-10-26T13:40:28.577Z,98803.80
2017-10-26T13:42:56.092Z,98803.91
2017-10-26T13:45:23.624Z,98799.27
2017-10-26T13:47:51.192Z,98806.23
2017-10-26T13:50:18.696Z,98801.83
2017-10-26T13:52:46.234Z,98802.36
2017-10-26T13:55:13.739Z,98798.34
2017-10-26T13:57:41.247Z,98808.59
2017-10-26T14:00:08.769Z,98809.69
2017-10-26T14:02:36.283Z,98810.23
2017-10-26T14:05:03.832Z,98807.50
2017-10-26T14:07:31.341Z,98815.17
2017-10-26T14:10:02.617Z,98810.81
2017-10-26T14:12:30.148Z,98808.08
2017-10-26T14:14:57.657Z,98807.45
2017-10-26T14:17:25.179Z,98818.23
2017-10-26T14:19:52.703Z,98802.52
2017-10-26T14:22:20.219Z,98800.29
2017-10-26T14:27:44.038Z,98810.41
2017-10-26T14:41:53.349Z,98800.01
2017-10-26T14:44:21.210Z,98796.23
2017-10-26T14:47:03.007Z,98803.63
2017-10-26T14:49:30.874Z,98796.92
2017-10-26T14:51:58.616Z,98795.25
2017-10-26T14:54:26.293Z,98795.03
2017-10-26T14:56:58.765Z,98796.03
2017-10-26T14:59:26.289Z,98792.81
2017-10-26T15:01:53.825Z,98793.89
2017-10-26T15:04:21.356Z,98795.80
2017-10-26T15:06:48.875Z,98795.31
2017-10-26T15:09:16.390Z,98789.20
2017-10-26T15:11:43.895Z,98794.47
2017-10-26T15:14:11.427Z,98794.34
2017-10-26T15:16:38.931Z,98798.19
2017-10-26T15:19:06.458Z,98802.66
2017-10-26T15:21:33.987Z,98807.05
2017-10-26T15:24:01.508Z,98798.43
2017-10-26T15:26:29.045Z,98798.59
2017-10-26T15:28:56.553Z,98802.24
2017-10-26T15:31:24.089Z,98799.81
2017-10-26T15:33:51.600Z,98800.77
2017-10-26T15:36:19.111Z,98796.19
2017-10-26T15:38:46.627Z,98803.58
2017-10-26T15:41:24.502Z,98797.52
2017-10-26T15:43:52.011Z,98806.31
2017-10-26T15:46:19.582Z,98800.02
2017-10-26T15:48:47.112Z,98797.39
2017-10-26T15:51:16.573Z,98802.27
2017-10-26T15:53:44.080Z,98800.45
2017-10-26T15:56:11.619Z,98802.30
2017-10-26T15:58:39.159Z,98803.30
2017-10-26T16:01:06.703Z,98805.25
2017-10-26T16:03:34.230Z,98798.77
2017-10-26T16:06:01.775Z,98805.48
2017-10-26T16:08:29.298Z,98805.78
2017-10-26T16:10:56.815Z,98805.00
2017-10-26T16:13:24.335Z,98795.38
2017-10-26T16:15:51.862Z,98801.36
2017-10-26T16:18:19.382Z,98803.09
2017-10-26T16:20:46.911Z,98803.47
2017-10-26T16:34:49.379Z,98789.53
2017-10-26T16:37:16.903Z,98789.84
2017-10-26T16:39:46.237Z,98781.99
2017-10-26T16:42:13.775Z,98784.11
2017-10-26T16:44:41.321Z,98785.73
2017-10-26T16:47:08.855Z,98791.98
2017-10-26T16:49:36.608Z,98790.14
2017-10-26T16:52:04.152Z,98794.33
2017-10-26T16:54:41.624Z,98803.91
2017-10-26T16:57:09.145Z,98803.27
2017-10-26T16:59:36.682Z,98805.61
2017-10-26T17:02:04.209Z,98796.59
2017-10-26T17:16:07.575Z,98799.82
2017-10-26T17:18:42.815Z,98799.83
2017-10-26T17:21:10.365Z,98802.88
2017-10-26T17:23:37.896Z,98799.19
2017-10-26T17:26:05.454Z,98802.02
2017-10-26T17:28:32.970Z,98803.63
2017-10-26T17:31:00.482Z,98805.45
2017-10-26T17:33:28.052Z,98798.58
2017-10-26T17:35:55.589Z,98805.67
2017-10-26T17:38:23.111Z,98804.50
2017-10-26T17:40:50.640Z,98800.48
2017-10-26T17:43:18.160Z,98809.70
2017-10-26T17:45:45.700Z,98811.85
2017-10-26T17:48:13.240Z,98811.75
2017-10-26T17:50:40.780Z,98812.83
2017-10-26T17:53:08.309Z,98801.39
2017-10-26T17:55:35.827Z,98812.97
2017-10-26T17:58:03.368Z,98809.47
2017-10-26T18:00:56.632Z,98815.38
2017-10-26T18:03:24.231Z,98812.66
2017-10-26T18:05:51.764Z,98811.45
2017-10-26T18:08:19.305Z,98812.05
2017-10-26T18:10:46.835Z,98807.93
2017-10-26T18:13:14.367Z,98816.53
2017-10-26T18:15:41.887Z,98810.81
2017-10-26T18:18:09.397Z,98812.27
2017-10-26T18:20:36.923Z,98813.14
2017-10-26T18:23:06.431Z,98810.50
2017-10-26T18:25:34.073Z,98810.50
2017-10-26T18:28:01.605Z,98805.44
2017-10-26T18:30:29.248Z,98799.97
2017-10-26T18:32:56.815Z,98798.95
2017-10-26T18:35:24.355Z,98798.42
2017-10-26T18:37:51.897Z,98798.13
2017-10-26T18:40:19.484Z,98792.59
2017-10-26T18:42:47.071Z,98783.73
2017-10-26T18:45:14.617Z,98783.27
2017-10-26T18:47:42.142Z,98776.73
2017-10-26T18:50:09.685Z,98775.11
2017-10-26T18:52:37.219Z,98775.46
2017-10-26T18:55:04.793Z,98773.44
2017-10-26T18:57:32.341Z,98775.68
2017-10-26T18:59:59.873Z,98787.27
2017-10-26T19:02:35.294Z,98779.35
2017-10-26T19:05:02.813Z,98781.55
2017-10-26T19:07:30.337Z,98773.95
2017-10-26T19:09:58.777Z,98774.02
2017-10-26T19:15:22.501Z,98773.69
2017-10-26T19:17:50.976Z,98769.13
2017-10-26T19:20:18.548Z,98767.46
2017-10-26T19:22:46.968Z,98765.17
2017-10-26T19:25:14.528Z,98764.80
2017-10-26T19:27:42.047Z,98759.20
2017-10-26T19:30:09.660Z,98759.23
2017-10-26T19:32:37.324Z,98754.20
2017-10-26T19:35:05.009Z,98749.92
2017-10-26T19:37:33.496Z,98747.47
2017-10-26T19:40:01.032Z,98748.44
2017-10-26T19:54:01.355Z,98749.54
2017-10-26T19:56:28.952Z,98735.42
2017-10-26T19:58:56.504Z,98731.87
2017-10-26T20:01:27.092Z,98730.53
2017-10-26T20:03:54.632Z,98725.02
2017-10-26T20:06:22.148Z,98727.72
2017-10-26T20:08:49.739Z,98722.67
2017-10-26T20:11:17.316Z,98719.75
2017-10-26T20:13:44.941Z,98719.13
2017-10-26T20:16:12.452Z,98715.20
2017-10-26T20:18:39.985Z,98720.47
2017-10-26T20:21:07.524Z,98720.45
2017-10-26T20:23:35.702Z,98719.40
2017-10-26T20:26:03.227Z,98724.00
2017-10-26T20:28:30.789Z,98722.52
2017-10-26T20:30:58.343Z,98716.59
2017-10-26T20:33:25.881Z,98717.25
2017-10-26T20:35:53.416Z,98716.80
2017-10-26T20:38:21.021Z,98719.25
2017-10-26T20:40:48.669Z,98717.53
2017-10-26T20:43:16.189Z,98716.34
2017-10-26T20:45:43.736Z,98706.02
2017-10-26T20:48:11.285Z,98708.13
2017-10-26T20:53:49.957Z,98702.20
2017-10-26T20:56:23.223Z,98706.87
2017-10-26T20:58:56.295Z,98708.41
2017-10-26T21:01:30.296Z,98706.80
2017-10-26T21:04:03.523Z,98708.97
2017-10-26T21:06:31.063Z,98706.92
2017-10-26T21:09:04.394Z,98706.19
2017-10-26T21:11:37.600Z,98704.97
2017-10-26T21:14:10.835Z,98695.10
2017-10-26T21:16:38.352Z,98702.15
2017-10-26T21:19:18.283Z,98694.73
2017-10-26T21:21:45.888Z,98697.87
2017-10-26T21:24:13.495Z,98698.81
2017-10-26T21:26:41.047Z,98696.32
2017-10-26T21:29:08.582Z,98698.67
2017-10-26T21:31:36.242Z,98691.13
2017-10-26T21:34:03.833Z,98684.38
2017-10-26T21:36:31.365Z,98682.06
2017-10-26T21:38:58.920Z,98679.34
2017-10-26T21:41:26.439Z,98686.55
2017-10-26T21:43:53.975Z,98681.80
2017-10-26T21:46:21.494Z,98684.13
2017-10-26T21:48:49.026Z,98690.25
2017-10-26T21:51:16.557Z,98687.63
2017-10-26T21:53:46.069Z,98688.69
2017-10-26T21:56:13.601Z,98685.79
2017-10-26T21:58:41.758Z,98678.97
2017-10-26T22:01:09.322Z,98687.59
2017-10-26T22:03:36.823Z,98677.03
2017-10-26T22:06:04.344Z,98676.38
2017-10-26T22:08:31.854Z,98679.02
2017-10-26T22:10:59.343Z,98674.05
2017-10-26T22:13:26.864Z,98677.53
2017-10-26T22:15:54.364Z,98675.52
2017-10-26T22:18:21.842Z,98679.39
2017-10-26T22:20:49.331Z,98675.32
2017-10-26T22:23:16.862Z,98672.77
2017-10-26T22:25:44.368Z,98664.27
2017-10-26T22:28:11.865Z,98669.27
2017-10-26T22:30:40.332Z,98668.28
2017-10-26T22:33:07.874Z,98666.44
2017-10-26T22:35:35.367Z,98668.67
2017-10-26T22:38:02.877Z,98663.31
2017-10-26T22:40:30.371Z,98652.61
2017-10-26T22:42:57.896Z,98641.13
2017-10-26T22:45:25.386Z,98638.63
2017-10-26T22:47:52.876Z,98636.83
2017-10-26T22:50:20.373Z,98637.91
2017-10-26T22:52:47.885Z,98644.38
2017-10-26T22:55:15.363Z,98643.90
2017-10-26T22:57:42.855Z,98648.40
2017-10-26T23:00:10.364Z,98638.75
2017-10-26T23:02:37.872Z,98640.80
2017-10-26T23:05:05.434Z,98642.67
2017-10-26T23:07:32.934Z,98640.03
2017-10-26T23:10:05.003Z,98641.56
2017-10-26T23:12:32.604Z,98638.31
2017-10-26T23:15:00.090Z,98632.63
2017-10-26T23:17:27.593Z,98627.88
2017-10-26T23:19:55.105Z,98631.92
2017-10-26T23:22:22.587Z,98633.64
2017-10-26T23:24:50.081Z,98628.03
2017-10-26T23:27:17.559Z,98630.36
2017-10-26T23:29:45.205Z,98629.83
2017-10-26T23:32:12.704Z,98636.05
2017-10-26T23:34:40.190Z,98636.87
2017-10-26T23:37:07.684Z,98629.81
2017-10-26T23:39:35.182Z,98635.15
2017-10-26T23:42:02.683Z,98637.41
2017-10-26T23:44:30.178Z,98634.20
2017-10-26T23:46:57.654Z,98631.91
2017-10-26T23:49:25.144Z,98631.83
2017-10-26T23:51:52.632Z,98641.64
2017-10-26T23:54:20.177Z,98637.60
2017-10-26T23:56:47.680Z,98626.45
2017-10-26T23:59:15.176Z,98614.25
